createdAt,value
2023-02-03T13:56:22.894Z,10.02
2023-02-03T13:59:01.004Z,9.90
2023-02-03T14:01:46.575Z,10.03
2023-02-03T14:04:26.272Z,10.09
2023-02-03T14:06:53.884Z,10.17
2023-02-03T14:09:31.644Z,10.14
2023-02-03T14:12:31.054Z,10.14
2023-02-03T14:15:05.228Z,10.12
2023-02-03T14:17:35.883Z,10.14
2023-02-03T14:20:26.075Z,10.20
2023-02-03T14:23:06.038Z,10.22
2023-02-03T14:25:59.185Z,9.99
2023-02-03T14:28:43.127Z,9.90
2023-02-03T14:31:17.207Z,9.99
2023-02-03T14:34:05.987Z,9.82
2023-02-03T14:36:41.873Z,9.95
2023-02-03T14:39:22.543Z,9.96
2023-02-03T14:41:55.168Z,9.95
2023-02-03T14:44:44.334Z,10.12
2023-02-03T14:47:36.464Z,10.02
2023-02-03T14:50:44.758Z,9.92
2023-02-03T14:53:39.086Z,9.87
2023-02-03T14:57:13.252Z,9.85
2023-02-03T14:59:49.309Z,9.74
2023-02-03T15:02:21.680Z,9.66
2023-02-03T15:04:52.971Z,9.58
2023-02-03T15:07:38.958Z,9.44
2023-02-03T15:10:29.304Z,9.46
2023-02-03T15:13:00.278Z,9.35
2023-02-03T15:15:31.579Z,9.20
2023-02-03T15:18:19.746Z,9.01
2023-02-03T15:20:54.600Z,8.81
2023-02-03T15:23:25.248Z,8.81
2023-02-03T15:26:01.407Z,8.84
2023-02-03T15:28:30.670Z,8.78
2023-02-03T15:31:01.467Z,8.76
2023-02-03T15:33:32.048Z,8.60
2023-02-03T15:36:06.328Z,8.52
2023-02-03T15:38:41.960Z,8.57
2023-02-03T15:41:26.615Z,8.44
2023-02-03T15:44:10.039Z,8.45
2023-02-03T15:46:50.144Z,8.35
2023-02-03T15:49:27.415Z,8.31
2023-02-03T15:52:17.622Z,8.45
2023-02-03T15:54:54.004Z,8.36
2023-02-03T15:57:34.170Z,8.33
2023-02-03T16:00:26.391Z,8.16
2023-02-03T16:02:55.505Z,8.19
2023-02-03T16:05:33.529Z,8.09
2023-02-03T16:08:28.730Z,8.22
2023-02-03T16:10:57.056Z,8.15
2023-02-03T16:13:27.304Z,8.10
2023-02-03T16:16:03.963Z,8.09
2023-02-03T16:18:36.243Z,7.87
2023-02-03T16:21:05.752Z,7.91
2023-02-03T16:23:33.754Z,7.85
2023-02-03T16:26:20.899Z,7.89
2023-02-03T16:29:16.476Z,7.71
2023-02-03T16:32:06.163Z,7.70
2023-02-03T16:34:53.093Z,7.66
2023-02-03T16:37:46.248Z,7.60
2023-02-03T16:40:41.491Z,7.63
2023-02-03T16:43:33.333Z,7.61
2023-02-03T16:46:21.351Z,7.51
2023-02-03T16:49:07.744Z,7.59
2023-02-03T16:51:42.131Z,7.48
2023-02-03T16:54:13.560Z,7.50
2023-02-03T16:56:42.299Z,7.51
2023-02-03T16:59:10.584Z,7.49
2023-02-03T17:01:38.886Z,7.37
2023-02-03T17:04:06.967Z,7.21
2023-02-03T17:06:38.817Z,7.12
2023-02-03T17:09:07.793Z,7.22
2023-02-03T17:11:35.899Z,7.18
2023-02-03T17:14:03.747Z,7.02
2023-02-03T17:16:33.481Z,6.99
2023-02-03T17:19:01.200Z,6.70
2023-02-03T17:21:29.793Z,6.50
2023-02-03T17:24:00.642Z,6.38
2023-02-03T17:26:28.664Z,6.26
2023-02-03T17:28:56.553Z,6.15
2023-02-03T17:31:24.217Z,6.12
2023-02-03T17:33:52.874Z,5.97
2023-02-03T17:36:21.984Z,5.79
2023-02-03T17:55:31.588Z,5.37
2023-02-03T17:57:59.550Z,5.32
2023-02-03T18:00:27.660Z,5.13
2023-02-03T18:02:56.867Z,5.14
2023-02-03T18:05:25.358Z,5.15
2023-02-03T18:07:53.004Z,5.10
2023-02-03T18:10:20.672Z,5.07
2023-02-03T18:12:48.397Z,5.07
2023-02-03T18:15:16.714Z,5.11
2023-02-03T18:17:44.398Z,4.97
2023-02-03T18:20:12.693Z,5.05
2023-02-03T18:22:40.475Z,5.13
2023-02-03T18:25:11.894Z,4.92
2023-02-03T18:27:42.068Z,4.84
2023-02-03T18:30:11.793Z,5.01
2023-02-03T18:32:39.511Z,4.94
2023-02-03T18:35:13.041Z,4.86
2023-02-03T18:37:40.829Z,4.77
2023-02-03T18:40:08.854Z,4.76
2023-02-03T18:42:36.653Z,4.80
2023-02-03T18:45:06.519Z,4.80
2023-02-03T18:47:35.377Z,4.77
2023-02-03T18:50:03.889Z,4.65
2023-02-03T18:52:31.530Z,4.66
2023-02-03T18:54:59.248Z,4.61
2023-02-03T18:57:26.974Z,4.52
2023-02-03T18:59:55.598Z,4.34
2023-02-03T19:02:25.908Z,4.47
2023-02-03T19:04:53.891Z,4.58
2023-02-03T19:07:22.677Z,4.56
2023-02-03T19:09:50.554Z,4.67
2023-02-03T19:12:18.456Z,4.57
2023-02-03T19:14:46.408Z,4.39
2023-02-03T19:17:14.334Z,4.41
2023-02-03T19:19:42.112Z,4.35
2023-02-03T19:22:12.051Z,4.20
2023-02-03T19:24:39.790Z,4.23
2023-02-03T19:27:07.547Z,4.21
2023-02-03T19:29:35.743Z,4.34
2023-02-03T19:32:03.742Z,4.33
2023-02-03T19:34:31.632Z,4.25
2023-02-03T19:37:00.681Z,4.18
2023-02-03T19:39:28.563Z,4.33
2023-02-03T19:41:56.283Z,4.52
2023-02-03T19:44:24.568Z,4.52
2023-02-03T19:46:52.620Z,4.49
2023-02-03T19:49:21.279Z,4.55
2023-02-03T19:51:49.100Z,4.49
2023-02-03T19:54:17.814Z,4.33
2023-02-03T19:56:46.717Z,4.39
2023-02-03T19:59:14.788Z,4.48
2023-02-03T20:01:42.601Z,4.55
2023-02-03T20:04:10.971Z,4.50
2023-02-03T20:06:38.863Z,4.63
2023-02-03T20:09:07.188Z,4.62
2023-02-03T20:11:34.979Z,4.69
2023-02-03T20:14:02.861Z,4.67
2023-02-03T20:16:30.707Z,4.62
2023-02-03T20:18:58.536Z,4.54
2023-02-03T20:21:26.512Z,4.56
2023-02-03T20:23:54.392Z,4.54
2023-02-03T20:26:22.242Z,4.65
2023-02-03T20:28:50.117Z,4.57
2023-02-03T20:31:17.963Z,4.63
2023-02-03T20:33:45.817Z,4.66
2023-02-03T20:36:13.578Z,4.59
2023-02-03T20:38:41.432Z,4.60
2023-02-03T20:41:12.476Z,4.72
2023-02-03T20:43:40.398Z,4.70
2023-02-03T20:46:17.340Z,4.65
2023-02-03T20:48:45.521Z,4.75
2023-02-03T20:51:19.179Z,4.66
2023-02-03T20:53:48.181Z,4.56
2023-02-03T20:56:21.488Z,4.57
2023-02-03T20:58:49.945Z,4.41
2023-02-03T21:01:21.847Z,4.44
2023-02-03T21:04:08.565Z,4.25
2023-02-03T21:06:36.665Z,4.09
2023-02-03T21:09:19.559Z,3.94
2023-02-03T21:11:47.428Z,3.85
2023-02-03T21:14:27.304Z,3.66
2023-02-03T21:16:55.468Z,3.65
2023-02-03T21:19:32.917Z,3.59
2023-02-03T21:22:15.168Z,3.57
2023-02-03T21:24:47.952Z,3.63
2023-02-03T21:27:22.562Z,3.59
2023-02-03T21:29:51.976Z,3.59
2023-02-03T21:32:19.828Z,3.49
2023-02-03T21:34:48.213Z,3.56
2023-02-03T21:37:24.728Z,3.46
2023-02-03T21:39:53.030Z,3.56
2023-02-03T21:42:43.421Z,3.50
2023-02-03T21:45:14.496Z,3.56
2023-02-03T21:47:47.099Z,3.67
2023-02-03T21:50:36.513Z,3.70
2023-02-03T21:53:10.655Z,3.73
2023-02-03T21:55:40.749Z,3.79
2023-02-03T21:58:23.641Z,3.87
2023-02-03T22:00:56.207Z,3.76
2023-02-03T22:03:38.513Z,3.88
2023-02-03T22:06:14.048Z,3.62
2023-02-03T22:08:47.507Z,3.54
2023-02-03T22:11:18.874Z,3.53
2023-02-03T22:13:48.282Z,3.60
2023-02-03T22:16:17.495Z,3.45
2023-02-03T22:18:48.995Z,3.52
2023-02-03T22:21:17.592Z,3.69
2023-02-03T22:23:45.350Z,3.66
2023-02-03T22:26:14.878Z,3.67
2023-02-03T22:28:43.247Z,3.76
2023-02-03T22:31:13.138Z,3.75
2023-02-03T22:33:42.431Z,3.63
2023-02-03T22:36:11.273Z,3.62
2023-02-03T22:38:40.411Z,3.61
2023-02-03T22:41:11.992Z,3.76
2023-02-03T22:43:40.658Z,3.61
2023-02-03T22:46:09.489Z,3.82
2023-02-03T22:48:37.445Z,3.81
2023-02-03T22:51:05.348Z,3.79
2023-02-03T22:53:33.226Z,3.88
2023-02-03T22:56:01.120Z,3.94
2023-02-03T22:58:28.886Z,4.08
2023-02-03T23:00:56.719Z,4.06
2023-02-03T23:03:24.507Z,4.08
2023-02-03T23:05:52.404Z,4.13
2023-02-03T23:08:20.196Z,4.10
2023-02-03T23:10:48.392Z,4.12
2023-02-03T23:13:16.276Z,4.07
2023-02-03T23:15:44.063Z,4.29
2023-02-03T23:18:11.930Z,4.20
2023-02-03T23:20:39.840Z,4.05
2023-02-03T23:23:07.854Z,4.07
2023-02-03T23:25:38.440Z,4.13
2023-02-03T23:28:06.604Z,3.99
2023-02-03T23:30:34.636Z,4.01
2023-02-03T23:33:03.026Z,3.95
2023-02-03T23:36:00.136Z,3.90
2023-02-03T23:38:28.134Z,3.95
2023-02-03T23:40:56.413Z,3.82
2023-02-03T23:43:24.617Z,3.80
2023-02-03T23:45:52.881Z,3.69
2023-02-03T23:48:20.919Z,3.61
2023-02-03T23:50:49.577Z,3.60
2023-02-03T23:53:17.944Z,3.53
2023-02-03T23:55:45.991Z,3.47
2023-02-03T23:58:14.245Z,3.43
